createdAt,value
2017-11-03T00:00:09.048Z,10.6
2017-11-03T00:01:13.186Z,10.4
2017-11-03T00:02:17.108Z,10.4
2017-11-03T00:03:19.925Z,10.3
2017-11-03T00:04:24.735Z,10.2
2017-11-03T00:05:28.030Z,10.2
2017-11-03T00:06:31.748Z,10.1
2017-11-03T00:07:35.895Z,10.1
2017-11-03T00:08:40.260Z,10.1
2017-11-03T00:09:44.725Z,10.1
2017-11-03T00:10:47.644Z,10.2
2017-11-03T00:11:50.669Z,10.4
2017-11-03T00:12:53.761Z,10.3
2017-11-03T00:13:57.188Z,10.3
2017-11-03T00:15:01.461Z,10.3
2017-11-03T00:16:05.750Z,10.1
2017-11-03T00:17:08.533Z,10.2
2017-11-03T00:18:13.188Z,10.3
2017-11-03T00:19:18.373Z,10.1
2017-11-03T00:20:21.819Z,10.2
2017-11-03T00:21:25.608Z,10.1
2017-11-03T00:22:29.017Z,10.1
2017-11-03T00:23:31.881Z,10.2
2017-11-03T00:24:35.203Z,10.2
2017-11-03T00:25:39.280Z,10.1
2017-11-03T00:26:42.108Z,10.1
2017-11-03T00:27:46.083Z,10.2
2017-11-03T00:28:49.896Z,10.1
2017-11-03T00:29:54.632Z,10.1
2017-11-03T00:30:58.483Z,10.1
2017-11-03T00:32:01.777Z,10.1
2017-11-03T00:33:04.567Z,10.1
2017-11-03T00:34:08.152Z,10.1
2017-11-03T00:35:11.992Z,10.1
2017-11-03T00:36:16.047Z,10.1
2017-11-03T00:37:19.582Z,10.1
2017-11-03T00:38:22.825Z,10
2017-11-03T00:39:27.679Z,10
2017-11-03T00:40:32.770Z,10
2017-11-03T00:41:36.112Z,9.9
2017-11-03T00:42:40.207Z,9.9
2017-11-03T00:43:43.569Z,9.8
2017-11-03T00:44:46.994Z,9.8
2017-11-03T00:45:50.446Z,9.7
2017-11-03T00:46:54.061Z,9.7
2017-11-03T00:47:57.057Z,9.8
2017-11-03T00:49:00.232Z,9.7
2017-11-03T00:50:03.329Z,9.6
2017-11-03T00:51:06.575Z,9.5
2017-11-03T00:52:09.785Z,9.6
2017-11-03T00:53:14.592Z,9.6
2017-11-03T00:54:17.316Z,9.5
2017-11-03T00:55:21.214Z,9.5
2017-11-03T00:56:24.222Z,9.6
2017-11-03T00:57:28.038Z,9.6
2017-11-03T00:58:31.120Z,9.7
2017-11-03T00:59:33.816Z,9.6
2017-11-03T01:00:36.630Z,9.6
2017-11-03T01:01:39.658Z,9.6
2017-11-03T01:02:42.517Z,9.7
2017-11-03T01:03:46.009Z,9.6
2017-11-03T01:04:48.760Z,9.7
2017-11-03T01:05:52.230Z,9.7
2017-11-03T01:06:56.790Z,9.7
2017-11-03T01:08:00.992Z,9.8
2017-11-03T01:09:04.930Z,9.8
2017-11-03T01:10:08.827Z,9.8
2017-11-03T01:11:11.568Z,9.9
2017-11-03T01:12:14.640Z,9.9
2017-11-03T01:13:18.292Z,10
2017-11-03T01:14:22.172Z,10
2017-11-03T01:15:25.995Z,10.1
2017-11-03T01:16:29.103Z,10.1
2017-11-03T01:17:32.685Z,10
2017-11-03T01:18:36.887Z,10
2017-11-03T01:19:40.853Z,9.9
2017-11-03T01:20:43.659Z,9.9
2017-11-03T01:21:47.077Z,9.9
2017-11-03T01:22:50.865Z,9.9
2017-11-03T01:23:54.110Z,9.9
2017-11-03T01:24:57.231Z,9.9
2017-11-03T01:26:01.567Z,9.9
2017-11-03T01:27:05.681Z,9.9
2017-11-03T01:28:08.930Z,9.9
2017-11-03T01:29:12.932Z,9.9
2017-11-03T01:30:16.812Z,9.9
2017-11-03T01:31:20.688Z,9.9
2017-11-03T01:32:23.678Z,9.9
2017-11-03T01:33:27.090Z,9.9
2017-11-03T01:34:30.211Z,9.8
2017-11-03T01:35:33.406Z,9.8
2017-11-03T01:36:36.240Z,9.8
2017-11-03T01:37:38.785Z,9.8
2017-11-03T01:38:42.061Z,9.8
2017-11-03T01:39:45.429Z,9.8
2017-11-03T01:40:48.463Z,9.8
2017-11-03T01:41:51.943Z,9.8
2017-11-03T01:42:56.424Z,9.7
2017-11-03T01:43:59.321Z,9.7
2017-11-03T01:45:02.247Z,9.8
2017-11-03T01:46:06.717Z,9.8
2017-11-03T01:47:09.549Z,9.7
2017-11-03T01:48:13.627Z,9.8
2017-11-03T01:49:16.906Z,9.8
2017-11-03T01:50:19.560Z,9.9
2017-11-03T01:51:22.598Z,9.9
2017-11-03T01:52:26.241Z,9.9
2017-11-03T01:53:31.217Z,9.8
2017-11-03T01:54:34.563Z,9.8
2017-11-03T01:55:37.549Z,9.8
2017-11-03T01:56:41.329Z,9.9
2017-11-03T01:57:44.644Z,9.9
2017-11-03T01:58:49.232Z,9.8
2017-11-03T01:59:51.995Z,9.8
2017-11-03T02:00:55.189Z,9.8
2017-11-03T02:01:58.074Z,9.8
2017-11-03T02:03:00.941Z,9.8
2017-11-03T02:04:04.230Z,9.8
2017-11-03T02:05:07.112Z,9.8
2017-11-03T02:06:09.750Z,9.8
2017-11-03T02:07:12.221Z,9.8
2017-11-03T02:08:15.905Z,9.8
2017-11-03T02:09:19.018Z,9.8
2017-11-03T02:10:21.698Z,9.8
2017-11-03T02:11:23.891Z,9.9
2017-11-03T02:12:26.250Z,9.8
2017-11-03T02:13:28.555Z,9.8
2017-11-03T02:14:31.057Z,9.8
2017-11-03T02:15:33.481Z,9.8
2017-11-03T02:16:35.863Z,9.8
2017-11-03T02:17:38.506Z,9.8
2017-11-03T02:18:41.124Z,9.8
2017-11-03T02:19:43.226Z,9.8
2017-11-03T02:20:45.699Z,9.8
2017-11-03T02:21:48.014Z,9.8
2017-11-03T02:22:56.923Z,9.8
2017-11-03T02:23:59.432Z,9.7
2017-11-03T02:25:01.880Z,9.8
2017-11-03T02:26:04.516Z,9.8
2017-11-03T02:27:07.187Z,9.8
2017-11-03T02:28:09.536Z,9.8
2017-11-03T02:29:12.084Z,9.8
2017-11-03T02:30:14.426Z,9.7
2017-11-03T02:31:17.646Z,9.7
2017-11-03T02:32:21.588Z,9.7
2017-11-03T02:33:25.144Z,9.7
2017-11-03T02:34:28.485Z,9.7
2017-11-03T02:35:31.401Z,9.7
2017-11-03T02:36:35.292Z,9.7
2017-11-03T02:37:38.407Z,9.6
2017-11-03T02:38:42.445Z,9.6
2017-11-03T02:39:46.118Z,9.6
2017-11-03T02:40:48.794Z,9.7
2017-11-03T02:41:51.731Z,9.6
2017-11-03T02:42:54.234Z,9.6
2017-11-03T02:43:58.226Z,9.6
2017-11-03T02:45:01.964Z,9.6
2017-11-03T02:46:05.789Z,9.7
2017-11-03T02:47:08.827Z,9.6
2017-11-03T02:48:12.331Z,9.7
2017-11-03T02:49:16.824Z,9.7
2017-11-03T02:50:19.708Z,9.8
2017-11-03T02:51:22.264Z,9.7
2017-11-03T02:52:25.401Z,9.7
2017-11-03T02:53:28.551Z,9.7
2017-11-03T02:54:32.801Z,9.7
2017-11-03T02:55:36.406Z,9.6
2017-11-03T02:56:40.911Z,9.6
2017-11-03T02:57:43.945Z,9.6
2017-11-03T02:58:47.276Z,9.6
2017-11-03T02:59:51.556Z,9.6
2017-11-03T03:00:55.635Z,9.6
2017-11-03T03:01:59.127Z,9.5
2017-11-03T03:03:03.986Z,9.6
2017-11-03T03:04:07.769Z,9.6
2017-11-03T03:05:13.096Z,9.5
2017-11-03T03:06:16.816Z,9.5
2017-11-03T03:07:20.357Z,9.5
2017-11-03T03:08:23.755Z,9.5
2017-11-03T03:09:27.499Z,9.5
2017-11-03T03:10:31.571Z,9.5
2017-11-03T03:11:33.998Z,9.5
2017-11-03T03:12:37.955Z,9.4
2017-11-03T03:13:41.433Z,9.5
2017-11-03T03:14:45.041Z,9.5
2017-11-03T03:15:48.367Z,9.5
2017-11-03T03:16:51.993Z,9.5
2017-11-03T03:17:55.724Z,9.5
2017-11-03T03:18:59.986Z,9.4
2017-11-03T03:20:02.541Z,9.4
2017-11-03T03:21:06.179Z,9.4
2017-11-03T03:22:09.495Z,9.5
2017-11-03T03:23:12.825Z,9.6
2017-11-03T03:24:17.294Z,9.5
2017-11-03T03:25:21.423Z,9.5
2017-11-03T03:26:25.303Z,9.4
2017-11-03T03:27:30.081Z,9.3
2017-11-03T03:28:33.577Z,9.3
2017-11-03T03:29:38.776Z,9.3
2017-11-03T03:30:41.493Z,9.3
2017-11-03T03:31:45.496Z,9.4
2017-11-03T03:32:48.393Z,9.4
2017-11-03T03:33:52.032Z,9.3
2017-11-03T03:34:54.603Z,9.3
2017-11-03T03:35:56.962Z,9.3
2017-11-03T03:37:01.002Z,9.3
2017-11-03T03:38:04.210Z,9.3
2017-11-03T03:39:07.579Z,9.3
2017-11-03T03:40:12.097Z,9.3
2017-11-03T03:41:15.101Z,9.2
2017-11-03T03:42:18.287Z,9.2
2017-11-03T03:43:22.079Z,9.2
2017-11-03T03:44:26.688Z,9.2
2017-11-03T03:45:29.576Z,9.2
2017-11-03T03:46:32.158Z,9.1
2017-11-03T03:47:35.189Z,9.2
2017-11-03T03:48:38.388Z,9.2
2017-11-03T03:49:41.835Z,9.1
2017-11-03T03:50:45.611Z,9.2
2017-11-03T03:51:49.435Z,9.2
2017-11-03T03:52:52.048Z,9.1
2017-11-03T03:53:55.308Z,9.2
2017-11-03T03:54:59.017Z,9.2
2017-11-03T03:56:02.498Z,9.2
2017-11-03T03:57:06.778Z,9.1
2017-11-03T03:58:09.884Z,9.1
2017-11-03T03:59:12.654Z,9.1
2017-11-03T04:00:16.900Z,9.2
2017-11-03T04:01:20.911Z,9.1
2017-11-03T04:02:25.131Z,9.1
2017-11-03T04:03:29.386Z,9.1
2017-11-03T04:04:32.504Z,9
2017-11-03T04:05:36.693Z,9.1
2017-11-03T04:06:40.481Z,9.2
2017-11-03T04:07:44.241Z,9.2
2017-11-03T04:08:48.578Z,9.2
2017-11-03T04:09:51.694Z,9.2
2017-11-03T04:10:55.518Z,9.2
2017-11-03T04:11:58.343Z,9.2
2017-11-03T04:13:02.014Z,9.2
2017-11-03T04:14:05.958Z,9.1
2017-11-03T04:15:08.881Z,9.1
2017-11-03T04:16:11.686Z,9.1
2017-11-03T04:17:15.552Z,9
2017-11-03T04:18:18.364Z,9.1
2017-11-03T04:19:23.307Z,9
2017-11-03T04:20:26.622Z,9
2017-11-03T04:21:30.424Z,8.9
2017-11-03T04:22:33.937Z,8.9
2017-11-03T04:23:38.104Z,9
2017-11-03T04:24:42.313Z,9
2017-11-03T04:25:45.182Z,9
2017-11-03T04:26:47.736Z,9
2017-11-03T04:27:51.737Z,9
2017-11-03T04:28:56.363Z,9
2017-11-03T04:30:00.227Z,9
2017-11-03T04:31:04.826Z,9
2017-11-03T04:32:07.657Z,9
2017-11-03T04:33:10.825Z,9
2017-11-03T04:34:13.324Z,9
2017-11-03T04:35:16.663Z,9
2017-11-03T04:36:21.092Z,9.1
2017-11-03T04:37:24.159Z,8.9
2017-11-03T04:38:27.341Z,9
2017-11-03T04:39:30.820Z,9
2017-11-03T04:40:34.637Z,9.1
2017-11-03T04:41:38.526Z,9.1
2017-11-03T04:42:41.540Z,9.1
2017-11-03T04:43:44.393Z,9.1
2017-11-03T04:44:47.189Z,9.1
2017-11-03T04:45:51.117Z,9.1
2017-11-03T04:46:54.755Z,9.1
2017-11-03T04:47:58.116Z,9.2
2017-11-03T04:49:01.704Z,9.2
2017-11-03T04:50:04.977Z,9.2
2017-11-03T04:51:08.155Z,9.2
2017-11-03T04:52:12.088Z,9.2
2017-11-03T04:53:16.158Z,9.2
2017-11-03T04:54:19.286Z,9.2
2017-11-03T04:55:23.193Z,9.3
2017-11-03T04:56:27.104Z,9.3
2017-11-03T04:57:30.717Z,9.3
2017-11-03T04:58:35.120Z,9.3
2017-11-03T04:59:38.263Z,9.3
2017-11-03T05:00:41.643Z,9.3
2017-11-03T05:01:44.730Z,9.3
2017-11-03T05:02:48.275Z,9.4
2017-11-03T05:03:51.302Z,9.3
2017-11-03T05:04:53.856Z,9.4
2017-11-03T05:05:56.596Z,9.4
2017-11-03T05:07:00.461Z,9.4
2017-11-03T05:08:03.503Z,9.4
2017-11-03T05:09:07.423Z,9.3
2017-11-03T05:10:11.169Z,9.4
2017-11-03T05:11:13.523Z,9.4
2017-11-03T05:12:16.684Z,9.4
2017-11-03T05:13:20.793Z,9.3
2017-11-03T05:14:24.460Z,9.3
2017-11-03T05:15:28.378Z,9.3
2017-11-03T05:16:31.966Z,9.4
2017-11-03T05:17:35.379Z,9.4
2017-11-03T05:18:38.742Z,9.4
2017-11-03T05:19:42.443Z,9.4
2017-11-03T05:20:46.124Z,9.4
2017-11-03T05:21:49.373Z,9.5
2017-11-03T05:22:52.211Z,9.4
2017-11-03T05:23:56.315Z,9.4
2017-11-03T05:25:00.625Z,9.4
2017-11-03T05:26:03.629Z,9.4
2017-11-03T05:27:06.428Z,9.4
2017-11-03T05:28:09.274Z,9.4
2017-11-03T05:29:12.552Z,9.4
2017-11-03T05:30:16.790Z,9.4
2017-11-03T05:31:20.143Z,9.4
2017-11-03T05:32:24.791Z,9.4
2017-11-03T05:33:27.502Z,9.3
2017-11-03T05:34:31.714Z,9.3
2017-11-03T05:35:35.620Z,9.4
2017-11-03T05:36:39.665Z,9.4
2017-11-03T05:37:42.292Z,9.3
2017-11-03T05:38:46.091Z,9.4
2017-11-03T05:39:49.193Z,9.4
2017-11-03T05:40:53.068Z,9.3
2017-11-03T05:41:56.236Z,9.3
2017-11-03T05:42:59.246Z,9.2
2017-11-03T05:44:02.339Z,9.2
2017-11-03T05:45:05.766Z,9.2
2017-11-03T05:46:09.264Z,9.3
2017-11-03T05:47:12.262Z,9.3
2017-11-03T05:48:15.634Z,9.1
2017-11-03T05:49:19.903Z,9.2
2017-11-03T05:50:23.430Z,9.1
2017-11-03T05:51:26.868Z,9
2017-11-03T05:52:29.793Z,8.9
2017-11-03T05:53:33.806Z,9
2017-11-03T05:54:38.618Z,9
2017-11-03T05:55:42.032Z,8.9
2017-11-03T05:56:46.276Z,8.8
2017-11-03T05:57:49.835Z,8.8
2017-11-03T05:58:53.376Z,8.7
2017-11-03T05:59:56.491Z,8.7
2017-11-03T06:01:00.056Z,8.6
2017-11-03T06:02:03.095Z,8.6
2017-11-03T06:03:06.929Z,8.7
2017-11-03T06:04:09.769Z,8.6
2017-11-03T06:05:12.127Z,8.6
2017-11-03T06:06:16.232Z,8.6
2017-11-03T06:07:19.210Z,8.6
2017-11-03T06:08:22.171Z,8.6
2017-11-03T06:09:25.857Z,8.5
2017-11-03T06:10:28.760Z,8.5
2017-11-03T06:11:31.980Z,8.4
2017-11-03T06:12:35.377Z,8.4
2017-11-03T06:13:38.358Z,8.6
2017-11-03T06:14:41.964Z,8.5
2017-11-03T06:15:46.263Z,8.4
2017-11-03T06:16:48.891Z,8.4
2017-11-03T06:17:51.580Z,8.3
2017-11-03T06:18:55.559Z,8.3
2017-11-03T06:19:58.657Z,8.3
2017-11-03T06:21:02.343Z,8.4
2017-11-03T06:22:04.860Z,8.4
2017-11-03T06:23:07.205Z,8.6
2017-11-03T06:24:10.524Z,8.6
2017-11-03T06:25:13.365Z,8.7
2017-11-03T06:26:16.750Z,8.7
2017-11-03T06:27:19.346Z,8.6
2017-11-03T06:28:21.679Z,8.6
2017-11-03T06:29:23.988Z,8.6
2017-11-03T06:30:26.709Z,8.6
2017-11-03T06:31:29.395Z,8.6
2017-11-03T06:32:34.026Z,8.5
2017-11-03T06:33:38.339Z,8.6
2017-11-03T06:34:41.362Z,8.6
2017-11-03T06:35:44.465Z,8.6
2017-11-03T06:36:48.107Z,8.6
2017-11-03T06:37:50.996Z,8.7
2017-11-03T06:38:53.796Z,8.8
2017-11-03T06:39:57.050Z,8.8
2017-11-03T06:41:00.232Z,8.8
2017-11-03T06:42:03.410Z,8.7
2017-11-03T06:43:07.035Z,8.7
2017-11-03T06:44:10.112Z,8.7
2017-11-03T06:45:13.555Z,8.8
2017-11-03T06:46:16.854Z,8.8
2017-11-03T06:47:20.201Z,8.9
2017-11-03T06:48:24.247Z,8.9
2017-11-03T06:49:27.181Z,8.9
2017-11-03T06:50:30.805Z,8.8
2017-11-03T06:51:33.826Z,8.8
2017-11-03T06:52:36.779Z,8.7
2017-11-03T06:53:40.601Z,8.8
2017-11-03T06:54:43.517Z,8.8
2017-11-03T06:55:46.075Z,8.8
2017-11-03T06:56:49.767Z,8.8
2017-11-03T06:57:52.556Z,8.8
2017-11-03T06:58:56.508Z,8.8
2017-11-03T06:59:59.456Z,8.8
2017-11-03T07:01:02.275Z,8.8
2017-11-03T07:02:05.424Z,8.9
2017-11-03T07:03:08.717Z,8.9
2017-11-03T07:04:11.901Z,9
2017-11-03T07:05:14.672Z,9.1
2017-11-03T07:06:17.682Z,9.1
2017-11-03T07:07:21.148Z,9.1
2017-11-03T07:08:24.841Z,9.2
2017-11-03T07:09:27.879Z,9.2
2017-11-03T07:10:30.561Z,9.3
2017-11-03T07:11:33.950Z,9.3
2017-11-03T07:12:37.452Z,9.3
2017-11-03T07:13:41.204Z,9.4
2017-11-03T07:14:44.127Z,9.4
2017-11-03T07:15:47.758Z,9.4
2017-11-03T07:16:51.918Z,9.4
2017-11-03T07:17:56.351Z,9.2
2017-11-03T07:18:59.730Z,9.1
2017-11-03T07:20:02.892Z,9.1
2017-11-03T07:21:06.453Z,9.2
2017-11-03T07:22:09.766Z,9.2
2017-11-03T07:23:14.798Z,9.4
2017-11-03T07:24:18.515Z,9.3
2017-11-03T07:25:22.720Z,10.1
2017-11-03T07:26:26.987Z,9.6
2017-11-03T07:27:31.733Z,9.4
2017-11-03T07:28:35.635Z,9.4
2017-11-03T07:29:38.754Z,9.3
2017-11-03T07:30:41.026Z,9.4
2017-11-03T07:31:43.791Z,9.4
2017-11-03T07:32:46.295Z,9.4
2017-11-03T07:33:50.024Z,9.6
2017-11-03T07:34:53.770Z,9.8
2017-11-03T07:35:57.549Z,9.7
2017-11-03T07:37:00.547Z,9.7
2017-11-03T07:38:02.989Z,9.6
2017-11-03T07:39:06.731Z,9.6
2017-11-03T07:40:11.299Z,9.6
2017-11-03T07:41:15.041Z,9.6
2017-11-03T07:42:17.885Z,9.6
2017-11-03T07:43:21.899Z,9.5
2017-11-03T07:44:27.034Z,9.6
2017-11-03T07:45:31.665Z,9.6
2017-11-03T07:46:35.633Z,9.5
2017-11-03T07:47:38.734Z,9.4
2017-11-03T07:48:42.416Z,9.4
2017-11-03T07:49:46.434Z,9.4
2017-11-03T07:50:50.214Z,9.4
2017-11-03T07:51:54.107Z,9.5
2017-11-03T07:52:57.085Z,9.6
2017-11-03T07:54:00.737Z,9.6
2017-11-03T07:55:04.444Z,9.6
2017-11-03T07:56:09.048Z,9.7
2017-11-03T07:57:13.409Z,9.7
2017-11-03T07:58:17.099Z,9.6
2017-11-03T07:59:21.379Z,9.6
2017-11-03T08:00:24.543Z,9.6
2017-11-03T08:01:28.375Z,9.6
2017-11-03T08:02:31.748Z,9.7
2017-11-03T08:03:35.438Z,9.7
2017-11-03T08:04:38.928Z,9.7
2017-11-03T08:05:42.975Z,9.7
2017-11-03T08:06:47.879Z,9.7
2017-11-03T08:07:51.801Z,9.8
2017-11-03T08:08:55.612Z,9.8
2017-11-03T08:09:58.331Z,9.6
2017-11-03T08:11:01.953Z,9.7
2017-11-03T08:12:05.835Z,9.6
2017-11-03T08:13:09.655Z,9.5
2017-11-03T08:14:12.435Z,9.5
2017-11-03T08:15:16.257Z,9.6
2017-11-03T08:16:19.946Z,9.5
2017-11-03T08:17:23.303Z,9.4
2017-11-03T08:18:27.174Z,9.5
2017-11-03T08:19:30.147Z,9.6
2017-11-03T08:20:32.705Z,9.6
2017-11-03T08:21:36.705Z,9.7
2017-11-03T08:22:40.782Z,9.6
2017-11-03T08:23:45.710Z,9.8
2017-11-03T08:24:50.384Z,9.9
2017-11-03T08:25:54.125Z,9.9
2017-11-03T08:26:57.722Z,9.8
2017-11-03T08:28:01.956Z,9.7
2017-11-03T08:29:05.760Z,9.7
2017-11-03T08:30:10.338Z,9.7
2017-11-03T08:31:13.115Z,9.7
2017-11-03T08:32:16.900Z,9.7
2017-11-03T08:33:20.617Z,9.8
2017-11-03T08:34:25.150Z,9.7
2017-11-03T08:35:28.802Z,9.9
2017-11-03T08:36:32.400Z,9.9
2017-11-03T08:37:35.610Z,9.8
2017-11-03T08:38:39.216Z,9.8
2017-11-03T08:39:42.501Z,9.9
2017-11-03T08:40:45.080Z,9.8
2017-11-03T08:41:49.073Z,9.8
2017-11-03T08:42:53.235Z,9.8
2017-11-03T08:43:55.653Z,9.9
2017-11-03T08:44:59.517Z,10
2017-11-03T08:46:02.664Z,10
2017-11-03T08:47:06.145Z,10
2017-11-03T08:48:10.205Z,10.1
2017-11-03T08:49:14.295Z,10.1
2017-11-03T08:50:16.866Z,10.1
2017-11-03T08:51:19.928Z,10.1
2017-11-03T08:52:23.528Z,10.2
2017-11-03T08:53:27.276Z,10.2
2017-11-03T08:54:31.701Z,10.2
2017-11-03T08:55:34.724Z,10.2
2017-11-03T08:56:37.325Z,10.3
2017-11-03T08:57:40.240Z,10.2
2017-11-03T08:58:43.957Z,10.2
2017-11-03T08:59:47.787Z,10.3
2017-11-03T09:00:50.347Z,10.4
2017-11-03T09:01:53.656Z,10.4
2017-11-03T09:02:57.131Z,10.3
2017-11-03T09:04:00.181Z,10.2
2017-11-03T09:05:04.838Z,10.3
2017-11-03T09:06:09.148Z,10.4
2017-11-03T09:07:11.880Z,10.5
2017-11-03T09:08:14.909Z,10.6
2017-11-03T09:09:18.792Z,10.5
2017-11-03T09:10:22.072Z,10.6
2017-11-03T09:11:24.898Z,10.6
2017-11-03T09:12:28.032Z,10.6
2017-11-03T09:13:31.217Z,10.6
2017-11-03T09:14:34.135Z,10.6
2017-11-03T09:15:38.030Z,10.6
2017-11-03T09:16:41.884Z,10.7
2017-11-03T09:17:44.954Z,10.7
2017-11-03T09:18:47.928Z,10.7
2017-11-03T09:19:51.115Z,10.7
2017-11-03T09:20:53.767Z,10.8
2017-11-03T09:21:56.706Z,10.8
2017-11-03T09:22:59.846Z,10.8
2017-11-03T09:24:03.282Z,10.8
2017-11-03T09:25:06.048Z,10.9
2017-11-03T09:26:08.792Z,10.9
2017-11-03T09:27:11.701Z,10.7
2017-11-03T09:28:14.752Z,10.7
2017-11-03T09:29:18.897Z,10.7
2017-11-03T09:30:22.551Z,10.8
2017-11-03T09:31:25.790Z,10.9
2017-11-03T09:32:30.154Z,10.9
2017-11-03T09:33:33.222Z,10.9
2017-11-03T09:34:35.645Z,10.9
2017-11-03T09:35:39.510Z,10.7
2017-11-03T09:36:43.285Z,10.8
2017-11-03T09:37:47.804Z,10.6
2017-11-03T09:38:50.916Z,10.6
2017-11-03T09:39:54.649Z,10.6
2017-11-03T09:40:57.290Z,10.6
2017-11-03T09:41:59.953Z,10.7
2017-11-03T09:43:03.499Z,10.8
2017-11-03T09:44:06.715Z,10.9
2017-11-03T09:45:09.958Z,10.9
2017-11-03T09:46:13.814Z,10.9
2017-11-03T09:47:17.264Z,11
2017-11-03T09:48:20.893Z,11.1
2017-11-03T09:49:24.610Z,11
2017-11-03T09:50:28.319Z,11
2017-11-03T09:51:30.698Z,11
2017-11-03T09:52:33.589Z,10.9
2017-11-03T09:53:36.689Z,10.9
2017-11-03T09:54:39.926Z,10.9
2017-11-03T09:55:42.642Z,10.9
2017-11-03T09:56:45.257Z,10.9
2017-11-03T09:57:48.339Z,10.9
2017-11-03T09:58:51.611Z,10.9
2017-11-03T09:59:56.068Z,11
2017-11-03T10:00:59.672Z,11.1
2017-11-03T10:02:03.192Z,11.1
2017-11-03T10:03:06.635Z,11.1
2017-11-03T10:04:10.653Z,11.3
2017-11-03T10:05:13.502Z,11.3
2017-11-03T10:06:16.534Z,11.4
2017-11-03T10:07:20.823Z,11.3
2017-11-03T10:08:24.488Z,11.3
2017-11-03T10:09:26.952Z,11.5
2017-11-03T10:10:30.343Z,11.5
2017-11-03T10:11:34.379Z,11.6
2017-11-03T10:12:38.200Z,11.6
2017-11-03T10:13:43.448Z,11.6
2017-11-03T10:14:46.032Z,11.8
2017-11-03T10:15:49.859Z,11.6
2017-11-03T10:16:54.342Z,11.5
2017-11-03T10:17:58.579Z,11.4
2017-11-03T10:19:02.101Z,11.6
2017-11-03T10:20:05.177Z,11.9
2017-11-03T10:21:09.413Z,11.7
2017-11-03T10:22:12.317Z,11.9
2017-11-03T10:23:15.263Z,11.9
2017-11-03T10:24:18.769Z,11.9
2017-11-03T10:25:21.078Z,11.9
2017-11-03T10:26:24.461Z,12
2017-11-03T10:27:27.239Z,12.1
2017-11-03T10:28:30.288Z,12.3
2017-11-03T10:29:34.210Z,12.5
2017-11-03T10:30:36.816Z,12.5
2017-11-03T10:31:39.687Z,12.2
2017-11-03T10:32:42.574Z,12.1
2017-11-03T10:33:46.167Z,12.3
2017-11-03T10:34:48.983Z,12.3
2017-11-03T10:35:52.425Z,12.2
2017-11-03T10:36:55.074Z,11.8
2017-11-03T10:37:58.128Z,11.6
2017-11-03T10:39:00.873Z,11.6
2017-11-03T10:40:03.725Z,11.8
2017-11-03T10:41:06.113Z,12
2017-11-03T10:42:09.357Z,12.1
2017-11-03T10:43:12.117Z,12.1
2017-11-03T10:44:14.952Z,12.2
2017-11-03T10:45:18.381Z,12.1
2017-11-03T10:46:21.316Z,12.1
2017-11-03T10:47:24.404Z,12.1
2017-11-03T10:48:26.764Z,12.2
2017-11-03T10:49:29.716Z,12.2
2017-11-03T10:50:33.372Z,12.1
2017-11-03T10:51:36.119Z,12.3
2017-11-03T10:52:39.433Z,12.3
2017-11-03T10:53:43.848Z,12.4
2017-11-03T10:54:46.971Z,12.2
2017-11-03T10:55:50.932Z,12.4
2017-11-03T10:56:55.379Z,12.3
2017-11-03T10:57:59.244Z,12.1
2017-11-03T10:59:02.402Z,12.1
2017-11-03T11:00:04.836Z,12.3
2017-11-03T11:01:08.076Z,12.2
2017-11-03T11:02:11.153Z,12.2
2017-11-03T11:03:14.073Z,12.1
2017-11-03T11:04:18.224Z,12.1
2017-11-03T11:05:20.750Z,12.1
2017-11-03T11:06:24.116Z,12
2017-11-03T11:07:27.042Z,12.2
2017-11-03T11:08:31.150Z,11.8
2017-11-03T11:09:34.651Z,11.7
2017-11-03T11:10:38.084Z,11.7
2017-11-03T11:11:41.393Z,11.7
2017-11-03T11:12:44.848Z,11.7
2017-11-03T11:13:47.800Z,12
2017-11-03T11:14:52.084Z,12
2017-11-03T11:15:56.007Z,12.1
2017-11-03T11:16:59.651Z,12.2
2017-11-03T11:18:03.705Z,12.2
2017-11-03T11:19:06.750Z,12.1
2017-11-03T11:20:10.176Z,12
2017-11-03T11:21:14.507Z,12.1
2017-11-03T11:22:17.217Z,12.1
2017-11-03T11:23:19.913Z,12.1
2017-11-03T11:24:23.444Z,12.2
2017-11-03T11:25:27.376Z,12.2
2017-11-03T11:26:29.976Z,12.3
2017-11-03T11:27:33.310Z,12.2
2017-11-03T11:28:35.779Z,12.3
2017-11-03T11:29:38.599Z,12.3
2017-11-03T11:30:41.405Z,12.3
2017-11-03T11:31:44.861Z,12.4
2017-11-03T11:32:48.658Z,12.4
2017-11-03T11:33:51.189Z,12.5
2017-11-03T11:34:54.575Z,12.5
2017-11-03T11:35:57.795Z,12.4
2017-11-03T11:37:01.085Z,12.5
2017-11-03T11:38:04.181Z,12.5
2017-11-03T11:39:06.729Z,12.5
2017-11-03T11:40:09.615Z,12.6
2017-11-03T11:41:12.522Z,12.5
2017-11-03T11:42:16.410Z,12.3
2017-11-03T11:43:20.070Z,11.9
2017-11-03T11:44:23.594Z,11.9
2017-11-03T11:45:27.086Z,12.3
2017-11-03T11:46:30.487Z,12.3
2017-11-03T11:47:33.714Z,12.2
2017-11-03T11:48:36.604Z,12.1
2017-11-03T11:49:39.831Z,11.9
2017-11-03T11:50:43.586Z,12.1
2017-11-03T11:51:46.049Z,12.1
2017-11-03T11:52:49.965Z,12
2017-11-03T11:53:53.720Z,12.2
2017-11-03T11:54:56.791Z,12.1
2017-11-03T11:55:59.902Z,12.2
2017-11-03T11:57:02.249Z,12.2
2017-11-03T11:58:05.963Z,12.2
2017-11-03T11:59:08.940Z,12.2
2017-11-03T12:00:11.955Z,12.1
2017-11-03T12:01:14.933Z,12.5
2017-11-03T12:02:18.127Z,12.2
2017-11-03T12:03:21.668Z,12.3
2017-11-03T12:04:25.281Z,12.1
2017-11-03T12:05:29.207Z,12.2
2017-11-03T12:06:32.908Z,12.2
2017-11-03T12:07:35.536Z,12.2
2017-11-03T12:08:40.173Z,12.2
2017-11-03T12:09:43.609Z,12.3
2017-11-03T12:10:46.403Z,12.2
2017-11-03T12:11:49.265Z,12.4
2017-11-03T12:12:51.684Z,12.5
2017-11-03T12:13:54.696Z,12.4
2017-11-03T12:14:59.276Z,12.4
2017-11-03T12:16:02.572Z,12.3
2017-11-03T12:17:06.303Z,12.3
2017-11-03T12:18:09.239Z,12.4
2017-11-03T12:19:12.275Z,12.5
2017-11-03T12:20:15.681Z,12.6
2017-11-03T12:21:19.030Z,12.5
2017-11-03T12:22:22.674Z,12.7
2017-11-03T12:23:26.537Z,12.6
2017-11-03T12:24:29.689Z,12.6
2017-11-03T12:25:33.406Z,12.7
2017-11-03T12:26:36.190Z,12.7
2017-11-03T12:27:38.984Z,12.6
2017-11-03T12:28:42.226Z,12.6
2017-11-03T12:29:44.653Z,12.7
2017-11-03T12:30:47.178Z,12.8
2017-11-03T12:31:49.607Z,12.8
2017-11-03T12:32:52.109Z,12.8
2017-11-03T12:33:54.831Z,12.6
2017-11-03T12:34:57.283Z,12.4
2017-11-03T12:36:00.066Z,12.4
2017-11-03T12:37:03.162Z,12.3
2017-11-03T12:38:06.130Z,12.4
2017-11-03T12:39:10.135Z,12.5
2017-11-03T12:40:13.835Z,12.5
2017-11-03T12:41:15.871Z,12.5
2017-11-03T12:42:19.405Z,12.5
2017-11-03T12:43:23.145Z,12.6
2017-11-03T12:44:26.370Z,12.5
2017-11-03T12:45:30.390Z,12.6
2017-11-03T12:46:34.186Z,12.6
2017-11-03T12:47:37.003Z,12.6
2017-11-03T12:48:40.798Z,12.7
2017-11-03T12:49:44.123Z,12.6
2017-11-03T12:50:47.171Z,12.6
2017-11-03T12:51:49.858Z,12.6
2017-11-03T12:52:53.808Z,12.5
2017-11-03T12:53:56.661Z,12.5
2017-11-03T12:54:59.833Z,12.4
2017-11-03T12:56:02.880Z,12.4
2017-11-03T12:57:07.134Z,12.5
2017-11-03T12:58:10.152Z,12.5
2017-11-03T12:59:13.284Z,12.6
2017-11-03T13:00:16.210Z,12.6
2017-11-03T13:01:20.021Z,12.6
2017-11-03T13:02:23.388Z,12.6
2017-11-03T13:03:27.439Z,12.6
2017-11-03T13:04:30.709Z,12.6
2017-11-03T13:05:33.893Z,12.7
2017-11-03T13:06:37.309Z,12.6
2017-11-03T13:07:40.546Z,12.6
2017-11-03T13:08:44.338Z,12.7
2017-11-03T13:09:47.985Z,12.7
2017-11-03T13:10:50.881Z,12.7
2017-11-03T13:11:54.721Z,12.6
2017-11-03T13:12:58.042Z,12.6
2017-11-03T13:14:01.862Z,12.7
2017-11-03T13:15:05.001Z,12.6
2017-11-03T13:16:08.483Z,12.5
2017-11-03T13:17:13.025Z,12.5
2017-11-03T13:18:17.836Z,12.5
2017-11-03T13:19:21.664Z,12.5
2017-11-03T13:20:24.914Z,12.5
2017-11-03T13:21:29.594Z,12.4
2017-11-03T13:22:32.629Z,12.6
2017-11-03T13:23:36.446Z,12.5
2017-11-03T13:24:40.248Z,12.5
2017-11-03T13:25:44.117Z,12.6
2017-11-03T13:26:46.806Z,12.4
2017-11-03T13:27:50.019Z,12.5
2017-11-03T13:28:53.747Z,12.5
2017-11-03T13:29:57.015Z,12.4
2017-11-03T13:31:00.595Z,12.5
2017-11-03T13:32:04.819Z,12.5
2017-11-03T13:33:08.660Z,12.5
2017-11-03T13:34:11.634Z,12.6
2017-11-03T13:35:14.942Z,12.6
2017-11-03T13:36:17.362Z,12.5
2017-11-03T13:37:19.635Z,12.4
2017-11-03T13:38:22.096Z,12.3
2017-11-03T13:39:25.204Z,12.4
2017-11-03T13:40:28.289Z,12.4
2017-11-03T13:41:31.647Z,12.5
2017-11-03T13:42:34.894Z,12.4
2017-11-03T13:43:38.878Z,12.4
2017-11-03T13:44:42.177Z,12.6
2017-11-03T13:45:46.420Z,12.5
2017-11-03T13:46:51.420Z,12.4
2017-11-03T13:47:54.939Z,12.2
2017-11-03T13:48:58.907Z,12.3
2017-11-03T13:50:02.435Z,12.3
2017-11-03T13:51:06.123Z,12.3
2017-11-03T13:52:09.261Z,12.5
2017-11-03T13:53:11.783Z,12.3
2017-11-03T13:54:14.988Z,12.4
2017-11-03T13:55:18.501Z,12.5
2017-11-03T13:56:21.431Z,12.5
2017-11-03T13:57:24.977Z,12.4
2017-11-03T13:58:28.416Z,12.4
2017-11-03T13:59:30.762Z,12.4
2017-11-03T14:00:34.472Z,12.4
2017-11-03T14:01:38.278Z,12.3
2017-11-03T14:02:41.327Z,12.3
2017-11-03T14:03:45.281Z,12.1
2017-11-03T14:04:49.130Z,12.3
2017-11-03T14:05:52.379Z,12.4
2017-11-03T14:06:55.883Z,12.3
2017-11-03T14:07:59.361Z,12.4
2017-11-03T14:09:03.321Z,12.4
2017-11-03T14:10:06.546Z,12.4
2017-11-03T14:11:10.048Z,12.3
2017-11-03T14:12:14.115Z,12.4
2017-11-03T14:13:17.632Z,12.3
2017-11-03T14:14:22.475Z,12.4
2017-11-03T14:15:25.264Z,12.3
2017-11-03T14:16:28.221Z,12.3
2017-11-03T14:17:31.488Z,12.3
2017-11-03T14:18:35.512Z,12.3
2017-11-03T14:19:39.930Z,12.3
2017-11-03T14:20:42.846Z,12.4
2017-11-03T14:21:45.604Z,12.4
2017-11-03T14:22:48.806Z,12.5